sensor_id;sensor_type;location;lat;lon;timestamp;P1;durP1;ratioP1;P2;durP2;ratioP2
63699;SDS011;49845;47.130;142.766;2023-08-08T00:01:51;6.10;;;3.53;;
63699;SDS011;49845;47.130;142.766;2023-08-08T00:04:22;5.70;;;3.73;;
63699;SDS011;49845;47.130;142.766;2023-08-08T00:06:53;43.17;;;10.40;;
63699;SDS011;49845;47.130;142.766;2023-08-08T00:09:24;6.17;;;3.40;;
63699;SDS011;49845;47.130;142.766;2023-08-08T00:11:55;11.57;;;3.57;;
63699;SDS011;49845;47.130;142.766;2023-08-08T00:14:26;9.07;;;3.90;;
63699;SDS011;49845;47.130;142.766;2023-08-08T00:16:59;5.87;;;3.10;;
63699;SDS011;49845;47.130;142.766;2023-08-08T00:19:29;3.13;;;2.40;;
63699;SDS011;49845;47.130;142.766;2023-08-08T00:22:00;4.77;;;2.77;;
63699;SDS011;49845;47.130;142.766;2023-08-08T00:24:30;6.13;;;2.63;;
63699;SDS011;49845;47.130;142.766;2023-08-08T00:27:01;6.30;;;2.80;;
63699;SDS011;49845;47.130;142.766;2023-08-08T00:29:31;7.57;;;2.63;;
63699;SDS011;49845;47.130;142.766;2023-08-08T00:32:04;2.07;;;1.73;;
63699;SDS011;49845;47.130;142.766;2023-08-08T00:34:35;2.17;;;1.40;;
63699;SDS011;49845;47.130;142.766;2023-08-08T00:37:06;5.00;;;2.10;;
63699;SDS011;49845;47.130;142.766;2023-08-08T00:39:37;2.30;;;1.50;;
63699;SDS011;49845;47.130;142.766;2023-08-08T00:42:10;3.00;;;1.80;;
63699;SDS011;49845;47.130;142.766;2023-08-08T00:44:40;4.30;;;1.90;;
63699;SDS011;49845;47.130;142.766;2023-08-08T00:47:13;2.40;;;1.43;;
63699;SDS011;49845;47.130;142.766;2023-08-08T00:49:43;4.47;;;1.57;;
63699;SDS011;49845;47.130;142.766;2023-08-08T00:52:16;2.90;;;1.50;;
63699;SDS011;49845;47.130;142.766;2023-08-08T00:54:46;5.50;;;1.77;;
63699;SDS011;49845;47.130;142.766;2023-08-08T00:57:17;2.40;;;1.40;;
63699;SDS011;49845;47.130;142.766;2023-08-08T00:59:48;3.13;;;1.53;;
63699;SDS011;49845;47.130;142.766;2023-08-08T01:02:20;2.23;;;1.70;;
63699;SDS011;49845;47.130;142.766;2023-08-08T01:04:51;3.27;;;2.10;;
63699;SDS011;49845;47.130;142.766;2023-08-08T01:07:24;3.23;;;1.63;;
63699;SDS011;49845;47.130;142.766;2023-08-08T01:10:12;4.40;;;1.60;;
63699;SDS011;49845;47.130;142.766;2023-08-08T01:12:45;7.03;;;2.60;;
63699;SDS011;49845;47.130;142.766;2023-08-08T01:15:19;3.20;;;1.80;;
63699;SDS011;49845;47.130;142.766;2023-08-08T01:17:52;3.67;;;1.70;;
63699;SDS011;49845;47.130;142.766;2023-08-08T01:20:24;7.63;;;1.83;;
63699;SDS011;49845;47.130;142.766;2023-08-08T01:22:56;2.60;;;1.30;;
63699;SDS011;49845;47.130;142.766;2023-08-08T01:25:36;4.40;;;1.43;;
63699;SDS011;49845;47.130;142.766;2023-08-08T01:28:24;8.47;;;3.03;;
63699;SDS011;49845;47.130;142.766;2023-08-08T01:30:55;1.67;;;1.40;;
63699;SDS011;49845;47.130;142.766;2023-08-08T01:33:25;6.33;;;1.90;;
63699;SDS011;49845;47.130;142.766;2023-08-08T01:35:58;2.33;;;1.30;;
63699;SDS011;49845;47.130;142.766;2023-08-08T01:38:31;3.03;;;1.87;;
63699;SDS011;49845;47.130;142.766;2023-08-08T01:41:07;3.10;;;1.37;;
63699;SDS011;49845;47.130;142.766;2023-08-08T01:43:38;2.83;;;1.40;;
63699;SDS011;49845;47.130;142.766;2023-08-08T01:46:10;2.60;;;1.50;;
63699;SDS011;49845;47.130;142.766;2023-08-08T01:48:44;1.97;;;1.47;;
63699;SDS011;49845;47.130;142.766;2023-08-08T01:51:15;4.30;;;2.07;;
63699;SDS011;49845;47.130;142.766;2023-08-08T01:53:46;2.90;;;1.70;;
63699;SDS011;49845;47.130;142.766;2023-08-08T01:56:19;3.33;;;1.80;;
63699;SDS011;49845;47.130;142.766;2023-08-08T01:58:49;2.30;;;1.50;;
63699;SDS011;49845;47.130;142.766;2023-08-08T02:01:20;2.73;;;1.53;;
63699;SDS011;49845;47.130;142.766;2023-08-08T02:03:50;3.10;;;1.43;;
63699;SDS011;49845;47.130;142.766;2023-08-08T02:06:21;2.57;;;1.50;;
63699;SDS011;49845;47.130;142.766;2023-08-08T02:08:52;2.60;;;1.53;;
63699;SDS011;49845;47.130;142.766;2023-08-08T02:11:24;2.60;;;1.60;;
63699;SDS011;49845;47.130;142.766;2023-08-08T02:13:55;2.60;;;1.53;;
63699;SDS011;49845;47.130;142.766;2023-08-08T02:16:25;2.47;;;1.40;;
63699;SDS011;49845;47.130;142.766;2023-08-08T02:18:56;2.70;;;1.50;;
63699;SDS011;49845;47.130;142.766;2023-08-08T02:21:27;2.63;;;1.30;;
63699;SDS011;49845;47.130;142.766;2023-08-08T02:23:57;2.30;;;1.20;;
63699;SDS011;49845;47.130;142.766;2023-08-08T02:26:30;2.63;;;1.20;;
63699;SDS011;49845;47.130;142.766;2023-08-08T02:29:00;2.50;;;1.37;;
63699;SDS011;49845;47.130;142.766;2023-08-08T02:31:31;2.63;;;1.20;;
63699;SDS011;49845;47.130;142.766;2023-08-08T02:34:01;3.63;;;1.40;;
63699;SDS011;49845;47.130;142.766;2023-08-08T02:36:32;1.73;;;1.10;;
63699;SDS011;49845;47.130;142.766;2023-08-08T02:39:02;3.40;;;1.00;;
63699;SDS011;49845;47.130;142.766;2023-08-08T02:41:34;2.13;;;1.07;;
63699;SDS011;49845;47.130;142.766;2023-08-08T02:44:06;2.33;;;1.20;;
63699;SDS011;49845;47.130;142.766;2023-08-08T02:46:36;2.83;;;1.00;;
63699;SDS011;49845;47.130;142.766;2023-08-08T02:49:07;1.30;;;0.80;;
63699;SDS011;49845;47.130;142.766;2023-08-08T02:51:37;1.73;;;0.97;;
63699;SDS011;49845;47.130;142.766;2023-08-08T02:54:08;1.27;;;0.90;;
63699;SDS011;49845;47.130;142.766;2023-08-08T02:56:40;1.70;;;1.10;;
63699;SDS011;49845;47.130;142.766;2023-08-08T02:59:11;2.20;;;1.20;;
63699;SDS011;49845;47.130;142.766;2023-08-08T03:01:41;1.90;;;1.10;;
63699;SDS011;49845;47.130;142.766;2023-08-08T03:04:45;1.83;;;1.10;;
63699;SDS011;49845;47.130;142.766;2023-08-08T03:08:11;2.23;;;1.10;;
63699;SDS011;49845;47.130;142.766;2023-08-08T03:10:45;2.43;;;1.40;;
63699;SDS011;49845;47.130;142.766;2023-08-08T03:13:17;1.97;;;1.20;;
63699;SDS011;49845;47.130;142.766;2023-08-08T03:15:50;2.10;;;1.40;;
63699;SDS011;49845;47.130;142.766;2023-08-08T03:18:20;2.27;;;1.10;;
63699;SDS011;49845;47.130;142.766;2023-08-08T03:20:52;1.70;;;1.20;;
63699;SDS011;49845;47.130;142.766;2023-08-08T03:23:22;1.97;;;1.13;;
63699;SDS011;49845;47.130;142.766;2023-08-08T03:25:53;1.50;;;1.00;;
63699;SDS011;49845;47.130;142.766;2023-08-08T03:28:25;2.80;;;1.13;;
63699;SDS011;49845;47.130;142.766;2023-08-08T03:30:56;2.00;;;1.17;;
63699;SDS011;49845;47.130;142.766;2023-08-08T03:33:27;1.87;;;1.20;;
63699;SDS011;49845;47.130;142.766;2023-08-08T03:35:57;3.27;;;1.40;;
63699;SDS011;49845;47.130;142.766;2023-08-08T03:38:28;2.93;;;1.20;;
63699;SDS011;49845;47.130;142.766;2023-08-08T03:40:59;3.03;;;1.30;;
63699;SDS011;49845;47.130;142.766;2023-08-08T03:43:31;1.70;;;1.30;;
63699;SDS011;49845;47.130;142.766;2023-08-08T03:46:02;1.87;;;1.30;;
63699;SDS011;49845;47.130;142.766;2023-08-08T03:48:32;2.03;;;1.40;;
63699;SDS011;49845;47.130;142.766;2023-08-08T03:51:03;3.87;;;1.70;;
63699;SDS011;49845;47.130;142.766;2023-08-08T03:53:33;2.40;;;1.47;;
63699;SDS011;49845;47.130;142.766;2023-08-08T03:56:04;2.00;;;1.40;;
63699;SDS011;49845;47.130;142.766;2023-08-08T03:58:37;1.80;;;1.40;;
63699;SDS011;49845;47.130;142.766;2023-08-08T04:01:08;2.87;;;1.53;;
63699;SDS011;49845;47.130;142.766;2023-08-08T04:03:39;2.83;;;1.63;;
63699;SDS011;49845;47.130;142.766;2023-08-08T04:06:10;3.00;;;1.70;;
63699;SDS011;49845;47.130;142.766;2023-08-08T04:08:41;2.73;;;1.57;;
63699;SDS011;49845;47.130;142.766;2023-08-08T04:11:11;3.47;;;2.13;;
63699;SDS011;49845;47.130;142.766;2023-08-08T04:13:43;3.07;;;1.90;;
63699;SDS011;49845;47.130;142.766;2023-08-08T04:16:14;4.17;;;2.10;;
63699;SDS011;49845;47.130;142.766;2023-08-08T04:18:44;4.57;;;1.77;;
63699;SDS011;49845;47.130;142.766;2023-08-08T04:21:16;2.87;;;1.67;;
63699;SDS011;49845;47.130;142.766;2023-08-08T04:23:46;3.17;;;1.70;;
63699;SDS011;49845;47.130;142.766;2023-08-08T04:26:17;2.97;;;1.60;;
63699;SDS011;49845;47.130;142.766;2023-08-08T04:28:49;4.43;;;1.80;;
63699;SDS011;49845;47.130;142.766;2023-08-08T04:31:19;6.13;;;1.80;;
63699;SDS011;49845;47.130;142.766;2023-08-08T04:33:52;2.70;;;1.63;;
63699;SDS011;49845;47.130;142.766;2023-08-08T04:36:28;3.30;;;1.93;;
63699;SDS011;49845;47.130;142.766;2023-08-08T04:38:59;1.93;;;1.60;;
63699;SDS011;49845;47.130;142.766;2023-08-08T04:41:29;5.07;;;1.80;;
63699;SDS011;49845;47.130;142.766;2023-08-08T04:44:02;3.33;;;1.70;;
63699;SDS011;49845;47.130;142.766;2023-08-08T04:46:32;3.17;;;1.40;;
63699;SDS011;49845;47.130;142.766;2023-08-08T04:49:06;4.47;;;1.53;;
63699;SDS011;49845;47.130;142.766;2023-08-08T04:51:36;3.17;;;1.60;;
63699;SDS011;49845;47.130;142.766;2023-08-08T04:54:07;3.27;;;1.67;;
63699;SDS011;49845;47.130;142.766;2023-08-08T04:56:38;3.17;;;1.90;;
63699;SDS011;49845;47.130;142.766;2023-08-08T04:59:10;5.03;;;2.53;;
63699;SDS011;49845;47.130;142.766;2023-08-08T05:01:41;4.87;;;1.97;;
63699;SDS011;49845;47.130;142.766;2023-08-08T05:04:11;1.87;;;1.60;;
63699;SDS011;49845;47.130;142.766;2023-08-08T05:06:42;2.40;;;1.80;;
63699;SDS011;49845;47.130;142.766;2023-08-08T05:09:13;4.03;;;2.07;;
63699;SDS011;49845;47.130;142.766;2023-08-08T05:11:44;3.70;;;2.00;;
63699;SDS011;49845;47.130;142.766;2023-08-08T05:14:17;3.57;;;2.20;;
63699;SDS011;49845;47.130;142.766;2023-08-08T05:16:47;6.13;;;2.33;;
63699;SDS011;49845;47.130;142.766;2023-08-08T05:19:18;6.30;;;2.03;;
63699;SDS011;49845;47.130;142.766;2023-08-08T05:21:48;5.37;;;2.20;;
63699;SDS011;49845;47.130;142.766;2023-08-08T05:24:19;5.60;;;2.20;;
63699;SDS011;49845;47.130;142.766;2023-08-08T05:26:50;4.47;;;2.20;;
63699;SDS011;49845;47.130;142.766;2023-08-08T05:29:22;6.23;;;2.40;;
63699;SDS011;49845;47.130;142.766;2023-08-08T05:31:52;6.27;;;1.90;;
63699;SDS011;49845;47.130;142.766;2023-08-08T05:34:24;5.67;;;2.57;;
63699;SDS011;49845;47.130;142.766;2023-08-08T05:36:54;3.47;;;1.90;;
63699;SDS011;49845;47.130;142.766;2023-08-08T05:39:42;4.97;;;2.27;;
63699;SDS011;49845;47.130;142.766;2023-08-08T05:42:12;6.90;;;2.13;;
63699;SDS011;49845;47.130;142.766;2023-08-08T05:44:44;5.47;;;2.30;;
63699;SDS011;49845;47.130;142.766;2023-08-08T05:47:15;4.37;;;2.13;;
63699;SDS011;49845;47.130;142.766;2023-08-08T05:49:46;4.47;;;2.50;;
63699;SDS011;49845;47.130;142.766;2023-08-08T05:52:16;4.60;;;2.03;;
63699;SDS011;49845;47.130;142.766;2023-08-08T05:54:47;3.80;;;2.00;;
63699;SDS011;49845;47.130;142.766;2023-08-08T05:57:18;5.50;;;2.20;;
63699;SDS011;49845;47.130;142.766;2023-08-08T05:59:50;5.10;;;2.00;;
63699;SDS011;49845;47.130;142.766;2023-08-08T06:02:21;3.47;;;2.10;;
63699;SDS011;49845;47.130;142.766;2023-08-08T06:04:51;3.87;;;2.00;;
63699;SDS011;49845;47.130;142.766;2023-08-08T06:07:22;4.83;;;2.00;;
63699;SDS011;49845;47.130;142.766;2023-08-08T06:09:53;4.17;;;2.17;;
63699;SDS011;49845;47.130;142.766;2023-08-08T06:12:23;3.77;;;2.07;;
63699;SDS011;49845;47.130;142.766;2023-08-08T06:14:56;4.00;;;2.10;;
63699;SDS011;49845;47.130;142.766;2023-08-08T06:17:26;3.33;;;2.03;;
63699;SDS011;49845;47.130;142.766;2023-08-08T06:20:01;4.27;;;2.17;;
63699;SDS011;49845;47.130;142.766;2023-08-08T06:22:32;6.53;;;2.53;;
63699;SDS011;49845;47.130;142.766;2023-08-08T06:25:03;3.47;;;2.40;;
63699;SDS011;49845;47.130;142.766;2023-08-08T06:27:34;2.90;;;2.00;;
63699;SDS011;49845;47.130;142.766;2023-08-08T06:30:07;5.03;;;2.87;;
63699;SDS011;49845;47.130;142.766;2023-08-08T06:32:37;4.10;;;2.37;;
63699;SDS011;49845;47.130;142.766;2023-08-08T06:35:09;5.37;;;2.87;;
63699;SDS011;49845;47.130;142.766;2023-08-08T06:37:40;5.97;;;2.80;;
63699;SDS011;49845;47.130;142.766;2023-08-08T06:40:11;5.30;;;3.03;;
63699;SDS011;49845;47.130;142.766;2023-08-08T06:42:42;6.73;;;3.20;;
63699;SDS011;49845;47.130;142.766;2023-08-08T06:45:15;7.63;;;2.63;;
63699;SDS011;49845;47.130;142.766;2023-08-08T06:47:46;5.00;;;3.07;;
63699;SDS011;49845;47.130;142.766;2023-08-08T06:50:19;6.60;;;3.07;;
63699;SDS011;49845;47.130;142.766;2023-08-08T06:52:53;4.40;;;3.47;;
63699;SDS011;49845;47.130;142.766;2023-08-08T06:55:24;8.00;;;3.87;;
63699;SDS011;49845;47.130;142.766;2023-08-08T06:57:55;7.67;;;3.53;;
63699;SDS011;49845;47.130;142.766;2023-08-08T07:00:28;8.27;;;4.30;;
63699;SDS011;49845;47.130;142.766;2023-08-08T07:03:00;6.93;;;3.77;;
63699;SDS011;49845;47.130;142.766;2023-08-08T07:05:34;6.43;;;4.67;;
63699;SDS011;49845;47.130;142.766;2023-08-08T07:08:07;9.23;;;4.83;;
63699;SDS011;49845;47.130;142.766;2023-08-08T07:10:38;10.17;;;4.77;;
63699;SDS011;49845;47.130;142.766;2023-08-08T07:13:09;9.30;;;4.77;;
63699;SDS011;49845;47.130;142.766;2023-08-08T07:15:46;7.03;;;4.67;;
63699;SDS011;49845;47.130;142.766;2023-08-08T07:18:19;6.37;;;4.60;;
63699;SDS011;49845;47.130;142.766;2023-08-08T07:20:55;5.27;;;4.43;;
63699;SDS011;49845;47.130;142.766;2023-08-08T07:23:27;5.87;;;4.60;;
63699;SDS011;49845;47.130;142.766;2023-08-08T07:25:58;6.50;;;4.50;;
63699;SDS011;49845;47.130;142.766;2023-08-08T07:28:30;7.57;;;4.90;;
63699;SDS011;49845;47.130;142.766;2023-08-08T07:31:03;10.63;;;4.83;;
63699;SDS011;49845;47.130;142.766;2023-08-08T07:33:35;8.23;;;4.70;;
63699;SDS011;49845;47.130;142.766;2023-08-08T07:36:06;5.77;;;4.50;;
63699;SDS011;49845;47.130;142.766;2023-08-08T07:38:38;4.33;;;3.10;;
63699;SDS011;49845;47.130;142.766;2023-08-08T07:41:09;8.43;;;2.97;;
63699;SDS011;49845;47.130;142.766;2023-08-08T07:43:41;9.73;;;3.23;;
63699;SDS011;49845;47.130;142.766;2023-08-08T07:46:14;9.67;;;3.07;;
63699;SDS011;49845;47.130;142.766;2023-08-08T07:48:46;8.47;;;3.13;;
63699;SDS011;49845;47.130;142.766;2023-08-08T07:51:17;5.73;;;3.00;;
63699;SDS011;49845;47.130;142.766;2023-08-08T07:53:53;5.97;;;3.10;;
63699;SDS011;49845;47.130;142.766;2023-08-08T07:56:24;6.73;;;3.00;;
63699;SDS011;49845;47.130;142.766;2023-08-08T07:58:56;7.00;;;3.20;;
63699;SDS011;49845;47.130;142.766;2023-08-08T08:01:32;6.10;;;3.33;;
63699;SDS011;49845;47.130;142.766;2023-08-08T08:04:04;6.03;;;3.10;;
63699;SDS011;49845;47.130;142.766;2023-08-08T08:06:38;5.77;;;3.20;;
63699;SDS011;49845;47.130;142.766;2023-08-08T08:09:11;7.33;;;3.73;;
63699;SDS011;49845;47.130;142.766;2023-08-08T08:11:42;12.40;;;4.00;;
63699;SDS011;49845;47.130;142.766;2023-08-08T08:14:13;7.50;;;3.27;;
63699;SDS011;49845;47.130;142.766;2023-08-08T08:16:47;5.53;;;3.37;;
63699;SDS011;49845;47.130;142.766;2023-08-08T08:19:19;7.87;;;3.03;;
63699;SDS011;49845;47.130;142.766;2023-08-08T08:21:50;5.87;;;3.37;;
63699;SDS011;49845;47.130;142.766;2023-08-08T08:24:22;7.33;;;4.47;;
63699;SDS011;49845;47.130;142.766;2023-08-08T08:26:57;7.80;;;3.60;;
63699;SDS011;49845;47.130;142.766;2023-08-08T08:29:29;7.53;;;3.90;;
63699;SDS011;49845;47.130;142.766;2023-08-08T08:32:04;6.00;;;3.30;;
63699;SDS011;49845;47.130;142.766;2023-08-08T08:34:37;7.83;;;3.70;;
63699;SDS011;49845;47.130;142.766;2023-08-08T08:37:08;5.47;;;3.47;;
63699;SDS011;49845;47.130;142.766;2023-08-08T08:39:41;7.27;;;3.43;;
63699;SDS011;49845;47.130;142.766;2023-08-08T08:42:13;7.03;;;3.37;;
63699;SDS011;49845;47.130;142.766;2023-08-08T08:44:48;7.80;;;3.50;;
63699;SDS011;49845;47.130;142.766;2023-08-08T08:47:22;7.77;;;4.20;;
63699;SDS011;49845;47.130;142.766;2023-08-08T08:49:55;8.00;;;3.73;;
63699;SDS011;49845;47.130;142.766;2023-08-08T08:52:26;7.43;;;4.07;;
63699;SDS011;49845;47.130;142.766;2023-08-08T08:54:58;10.13;;;4.27;;
63699;SDS011;49845;47.130;142.766;2023-08-08T08:57:30;6.80;;;4.23;;
63699;SDS011;49845;47.130;142.766;2023-08-08T09:00:06;8.07;;;4.33;;
63699;SDS011;49845;47.130;142.766;2023-08-08T09:02:45;8.17;;;4.50;;
63699;SDS011;49845;47.130;142.766;2023-08-08T09:05:23;5.57;;;4.27;;
63699;SDS011;49845;47.130;142.766;2023-08-08T09:07:57;7.63;;;4.93;;
63699;SDS011;49845;47.130;142.766;2023-08-08T09:10:31;7.13;;;4.90;;
63699;SDS011;49845;47.130;142.766;2023-08-08T09:13:15;13.97;;;5.30;;
63699;SDS011;49845;47.130;142.766;2023-08-08T09:16:20;10.27;;;5.10;;
63699;SDS011;49845;47.130;142.766;2023-08-08T09:18:56;10.87;;;5.50;;
63699;SDS011;49845;47.130;142.766;2023-08-08T09:21:29;9.03;;;5.00;;
63699;SDS011;49845;47.130;142.766;2023-08-08T09:24:07;12.47;;;5.50;;
63699;SDS011;49845;47.130;142.766;2023-08-08T09:26:49;10.70;;;5.00;;
63699;SDS011;49845;47.130;142.766;2023-08-08T09:29:57;7.20;;;5.27;;
63699;SDS011;49845;47.130;142.766;2023-08-08T09:32:48;8.70;;;5.40;;
63699;SDS011;49845;47.130;142.766;2023-08-08T09:35:44;11.53;;;6.00;;
63699;SDS011;49845;47.130;142.766;2023-08-08T09:38:30;12.40;;;6.23;;
63699;SDS011;49845;47.130;142.766;2023-08-08T09:41:05;15.20;;;6.20;;
63699;SDS011;49845;47.130;142.766;2023-08-08T09:43:43;12.53;;;6.60;;
63699;SDS011;49845;47.130;142.766;2023-08-08T09:46:18;11.40;;;6.47;;
63699;SDS011;49845;47.130;142.766;2023-08-08T09:48:51;14.47;;;6.63;;
63699;SDS011;49845;47.130;142.766;2023-08-08T09:51:26;9.77;;;6.10;;
63699;SDS011;49845;47.130;142.766;2023-08-08T09:53:59;11.97;;;7.20;;
63699;SDS011;49845;47.130;142.766;2023-08-08T09:56:31;11.03;;;6.20;;
63699;SDS011;49845;47.130;142.766;2023-08-08T09:59:03;10.93;;;6.80;;
63699;SDS011;49845;47.130;142.766;2023-08-08T10:01:38;11.63;;;6.27;;
63699;SDS011;49845;47.130;142.766;2023-08-08T10:04:14;13.50;;;6.57;;
63699;SDS011;49845;47.130;142.766;2023-08-08T10:06:49;9.53;;;6.47;;
63699;SDS011;49845;47.130;142.766;2023-08-08T10:09:21;10.77;;;6.83;;
63699;SDS011;49845;47.130;142.766;2023-08-08T10:11:52;9.77;;;6.90;;
63699;SDS011;49845;47.130;142.766;2023-08-08T10:14:28;12.50;;;6.87;;
63699;SDS011;49845;47.130;142.766;2023-08-08T10:17:02;10.97;;;6.90;;
63699;SDS011;49845;47.130;142.766;2023-08-08T10:19:35;10.20;;;6.83;;
63699;SDS011;49845;47.130;142.766;2023-08-08T10:22:09;10.60;;;7.40;;
63699;SDS011;49845;47.130;142.766;2023-08-08T10:24:41;11.53;;;7.50;;
63699;SDS011;49845;47.130;142.766;2023-08-08T10:27:26;11.33;;;7.20;;
63699;SDS011;49845;47.130;142.766;2023-08-08T10:30:02;12.33;;;7.10;;
63699;SDS011;49845;47.130;142.766;2023-08-08T10:32:38;10.83;;;7.30;;
63699;SDS011;49845;47.130;142.766;2023-08-08T10:35:11;12.97;;;7.43;;
63699;SDS011;49845;47.130;142.766;2023-08-08T10:37:53;12.50;;;6.83;;
63699;SDS011;49845;47.130;142.766;2023-08-08T10:40:32;11.87;;;7.33;;
63699;SDS011;49845;47.130;142.766;2023-08-08T10:43:09;12.25;;;7.13;;
63699;SDS011;49845;47.130;142.766;2023-08-08T10:45:43;13.20;;;7.17;;
63699;SDS011;49845;47.130;142.766;2023-08-08T10:48:26;10.57;;;6.90;;
63699;SDS011;49845;47.130;142.766;2023-08-08T10:50:58;10.90;;;7.07;;
63699;SDS011;49845;47.130;142.766;2023-08-08T10:53:33;14.43;;;7.40;;
63699;SDS011;49845;47.130;142.766;2023-08-08T10:56:06;14.67;;;6.97;;
63699;SDS011;49845;47.130;142.766;2023-08-08T10:58:47;15.52;;;7.28;;
63699;SDS011;49845;47.130;142.766;2023-08-08T11:01:24;10.57;;;7.60;;
63699;SDS011;49845;47.130;142.766;2023-08-08T11:03:57;11.07;;;6.43;;
63699;SDS011;49845;47.130;142.766;2023-08-08T11:06:29;13.27;;;7.83;;
63699;SDS011;49845;47.130;142.766;2023-08-08T11:09:08;11.80;;;7.37;;
63699;SDS011;49845;47.130;142.766;2023-08-08T11:11:41;16.00;;;7.90;;
63699;SDS011;49845;47.130;142.766;2023-08-08T11:14:17;11.30;;;6.30;;
63699;SDS011;49845;47.130;142.766;2023-08-08T11:16:51;11.30;;;6.30;;
63699;SDS011;49845;47.130;142.766;2023-08-08T11:19:24;11.37;;;6.03;;
63699;SDS011;49845;47.130;142.766;2023-08-08T11:21:57;8.93;;;5.80;;
63699;SDS011;49845;47.130;142.766;2023-08-08T11:24:36;11.97;;;6.53;;
63699;SDS011;49845;47.130;142.766;2023-08-08T11:27:09;9.63;;;6.37;;
63699;SDS011;49845;47.130;142.766;2023-08-08T11:30:02;11.73;;;6.07;;
63699;SDS011;49845;47.130;142.766;2023-08-08T11:32:36;12.77;;;5.87;;
63699;SDS011;49845;47.130;142.766;2023-08-08T11:35:09;12.33;;;5.73;;
63699;SDS011;49845;47.130;142.766;2023-08-08T11:37:41;8.07;;;6.00;;
63699;SDS011;49845;47.130;142.766;2023-08-08T11:40:18;14.27;;;5.97;;
63699;SDS011;49845;47.130;142.766;2023-08-08T11:42:55;13.57;;;5.90;;
63699;SDS011;49845;47.130;142.766;2023-08-08T11:45:27;13.50;;;5.87;;
63699;SDS011;49845;47.130;142.766;2023-08-08T11:47:59;13.20;;;6.40;;
63699;SDS011;49845;47.130;142.766;2023-08-08T11:50:32;9.73;;;6.00;;
63699;SDS011;49845;47.130;142.766;2023-08-08T11:53:10;10.07;;;6.17;;
63699;SDS011;49845;47.130;142.766;2023-08-08T11:55:45;10.20;;;5.40;;
63699;SDS011;49845;47.130;142.766;2023-08-08T11:58:18;9.37;;;5.47;;
63699;SDS011;49845;47.130;142.766;2023-08-08T12:00:51;11.80;;;6.37;;
63699;SDS011;49845;47.130;142.766;2023-08-08T12:03:25;12.77;;;6.37;;
63699;SDS011;49845;47.130;142.766;2023-08-08T12:05:57;11.03;;;5.80;;
63699;SDS011;49845;47.130;142.766;2023-08-08T12:08:29;9.67;;;6.00;;
63699;SDS011;49845;47.130;142.766;2023-08-08T12:11:03;11.50;;;5.47;;
63699;SDS011;49845;47.130;142.766;2023-08-08T12:13:37;10.67;;;5.40;;
63699;SDS011;49845;47.130;142.766;2023-08-08T12:16:11;9.13;;;5.23;;
63699;SDS011;49845;47.130;142.766;2023-08-08T12:18:44;10.50;;;5.70;;
63699;SDS011;49845;47.130;142.766;2023-08-08T12:21:19;12.07;;;5.20;;
63699;SDS011;49845;47.130;142.766;2023-08-08T12:23:50;10.00;;;5.60;;
63699;SDS011;49845;47.130;142.766;2023-08-08T12:26:24;10.20;;;5.53;;
63699;SDS011;49845;47.130;142.766;2023-08-08T12:28:56;8.50;;;5.20;;
63699;SDS011;49845;47.130;142.766;2023-08-08T12:31:28;14.27;;;5.20;;
63699;SDS011;49845;47.130;142.766;2023-08-08T12:34:01;8.90;;;4.80;;
63699;SDS011;49845;47.130;142.766;2023-08-08T12:36:35;9.37;;;4.90;;
63699;SDS011;49845;47.130;142.766;2023-08-08T12:39:08;8.47;;;4.87;;
63699;SDS011;49845;47.130;142.766;2023-08-08T12:41:42;9.40;;;5.07;;
63699;SDS011;49845;47.130;142.766;2023-08-08T12:44:17;13.00;;;5.23;;
63699;SDS011;49845;47.130;142.766;2023-08-08T12:46:50;9.53;;;4.60;;
63699;SDS011;49845;47.130;142.766;2023-08-08T12:49:22;11.07;;;5.10;;
63699;SDS011;49845;47.130;142.766;2023-08-08T12:51:55;11.13;;;4.80;;
63699;SDS011;49845;47.130;142.766;2023-08-08T12:54:28;9.20;;;4.60;;
63699;SDS011;49845;47.130;142.766;2023-08-08T12:57:01;9.50;;;4.70;;
63699;SDS011;49845;47.130;142.766;2023-08-08T12:59:33;13.60;;;4.87;;
63699;SDS011;49845;47.130;142.766;2023-08-08T13:02:05;13.23;;;4.60;;
63699;SDS011;49845;47.130;142.766;2023-08-08T13:04:42;10.23;;;4.43;;
63699;SDS011;49845;47.130;142.766;2023-08-08T13:07:13;10.53;;;4.53;;
63699;SDS011;49845;47.130;142.766;2023-08-08T13:09:46;12.47;;;4.67;;
63699;SDS011;49845;47.130;142.766;2023-08-08T13:12:20;13.23;;;4.27;;
63699;SDS011;49845;47.130;142.766;2023-08-08T13:14:51;9.07;;;4.53;;
63699;SDS011;49845;47.130;142.766;2023-08-08T13:17:24;9.77;;;4.83;;
63699;SDS011;49845;47.130;142.766;2023-08-08T13:19:56;11.83;;;5.17;;
63699;SDS011;49845;47.130;142.766;2023-08-08T13:22:28;12.33;;;5.00;;
63699;SDS011;49845;47.130;142.766;2023-08-08T13:25:00;13.17;;;5.10;;
63699;SDS011;49845;47.130;142.766;2023-08-08T13:27:34;13.90;;;5.67;;
63699;SDS011;49845;47.130;142.766;2023-08-08T13:30:07;11.40;;;5.23;;
63699;SDS011;49845;47.130;142.766;2023-08-08T13:32:40;9.07;;;4.73;;
63699;SDS011;49845;47.130;142.766;2023-08-08T13:35:12;13.27;;;5.80;;
63699;SDS011;49845;47.130;142.766;2023-08-08T13:37:45;12.07;;;5.60;;
63699;SDS011;49845;47.130;142.766;2023-08-08T13:40:20;11.70;;;5.17;;
63699;SDS011;49845;47.130;142.766;2023-08-08T13:42:53;11.50;;;5.33;;
63699;SDS011;49845;47.130;142.766;2023-08-08T13:45:25;12.17;;;6.10;;
63699;SDS011;49845;47.130;142.766;2023-08-08T13:47:57;14.47;;;5.60;;
63699;SDS011;49845;47.130;142.766;2023-08-08T13:50:30;13.97;;;5.87;;
63699;SDS011;49845;47.130;142.766;2023-08-08T13:53:02;13.03;;;5.50;;
63699;SDS011;49845;47.130;142.766;2023-08-08T13:55:34;12.23;;;5.70;;
63699;SDS011;49845;47.130;142.766;2023-08-08T13:58:10;11.40;;;5.80;;
63699;SDS011;49845;47.130;142.766;2023-08-08T14:00:41;14.97;;;6.17;;
63699;SDS011;49845;47.130;142.766;2023-08-08T14:03:15;13.60;;;5.80;;
63699;SDS011;49845;47.130;142.766;2023-08-08T14:05:49;13.60;;;5.27;;
63699;SDS011;49845;47.130;142.766;2023-08-08T14:08:22;14.97;;;6.07;;
63699;SDS011;49845;47.130;142.766;2023-08-08T14:10:54;13.50;;;6.10;;
63699;SDS011;49845;47.130;142.766;2023-08-08T14:13:27;13.97;;;5.97;;
63699;SDS011;49845;47.130;142.766;2023-08-08T14:16:02;12.40;;;6.37;;
63699;SDS011;49845;47.130;142.766;2023-08-08T14:18:35;15.67;;;5.97;;
63699;SDS011;49845;47.130;142.766;2023-08-08T14:21:07;11.37;;;5.73;;
63699;SDS011;49845;47.130;142.766;2023-08-08T14:23:39;9.17;;;5.40;;
63699;SDS011;49845;47.130;142.766;2023-08-08T14:26:12;14.00;;;6.30;;
63699;SDS011;49845;47.130;142.766;2023-08-08T14:28:46;17.03;;;5.70;;
63699;SDS011;49845;47.130;142.766;2023-08-08T14:31:17;13.33;;;5.93;;
63699;SDS011;49845;47.130;142.766;2023-08-08T14:33:49;14.63;;;5.83;;
63699;SDS011;49845;47.130;142.766;2023-08-08T14:36:21;11.43;;;5.63;;
63699;SDS011;49845;47.130;142.766;2023-08-08T14:38:54;11.60;;;6.03;;
63699;SDS011;49845;47.130;142.766;2023-08-08T14:41:25;10.87;;;5.50;;
63699;SDS011;49845;47.130;142.766;2023-08-08T14:44:00;10.47;;;5.90;;
63699;SDS011;49845;47.130;142.766;2023-08-08T14:46:32;8.83;;;5.17;;
63699;SDS011;49845;47.130;142.766;2023-08-08T14:49:04;11.30;;;5.00;;
63699;SDS011;49845;47.130;142.766;2023-08-08T14:51:36;12.73;;;5.97;;
63699;SDS011;49845;47.130;142.766;2023-08-08T14:54:09;12.80;;;5.63;;